createdAt,value
2022-10-13T00:01:19.726Z,3.30
2022-10-13T00:03:48.266Z,3.20
2022-10-13T00:06:25.239Z,3.00
2022-10-13T00:08:54.159Z,2.60
2022-10-13T00:11:26.414Z,2.80
2022-10-13T00:14:04.898Z,2.70
2022-10-13T00:16:34.788Z,3.10
2022-10-13T00:19:02.585Z,3.30
2022-10-13T00:21:30.198Z,3.30
2022-10-13T00:23:58.157Z,3.20
2022-10-13T00:26:27.323Z,2.90
2022-10-13T00:28:56.260Z,3.10
2022-10-13T00:31:31.812Z,3.30
2022-10-13T00:34:01.821Z,3.00
2022-10-13T00:36:30.137Z,2.80
2022-10-13T00:38:58.653Z,3.80
2022-10-13T00:41:26.982Z,4.30
2022-10-13T00:44:45.089Z,3.80
2022-10-13T00:47:12.676Z,3.60
2022-10-13T00:49:40.301Z,3.80
2022-10-13T00:52:08.039Z,3.40
2022-10-13T00:54:35.729Z,3.70
2022-10-13T00:57:06.003Z,3.50
2022-10-13T00:59:34.862Z,3.60
2022-10-13T01:02:03.828Z,3.70
2022-10-13T01:04:40.850Z,4.20
2022-10-13T01:07:09.147Z,4.00
2022-10-13T01:09:42.332Z,4.70
2022-10-13T01:12:33.088Z,4.00
2022-10-13T01:15:31.805Z,4.10
2022-10-13T01:18:13.978Z,4.20
2022-10-13T01:20:51.916Z,4.30
2022-10-13T01:23:47.362Z,4.20
2022-10-13T01:26:51.830Z,3.90
2022-10-13T01:29:47.463Z,4.20
2022-10-13T01:32:42.025Z,4.50
2022-10-13T01:35:20.645Z,4.20
2022-10-13T01:38:02.301Z,4.70
2022-10-13T01:43:30.058Z,4.30
2022-10-13T01:46:18.607Z,4.30
2022-10-13T01:48:46.365Z,4.60
2022-10-13T01:51:19.180Z,4.50
2022-10-13T01:53:49.616Z,4.40
2022-10-13T01:56:17.331Z,4.20
2022-10-13T01:58:47.082Z,4.50
2022-10-13T02:01:46.564Z,4.20
2022-10-13T02:04:53.956Z,4.50
2022-10-13T02:07:35.085Z,4.00
2022-10-13T02:10:25.163Z,4.50
2022-10-13T02:13:07.015Z,3.90
2022-10-13T02:15:47.090Z,4.80
2022-10-13T02:18:20.061Z,5.00
2022-10-13T02:20:50.344Z,5.30
2022-10-13T02:23:19.246Z,5.00
2022-10-13T02:25:49.951Z,4.80
2022-10-13T02:28:19.279Z,4.90
2022-10-13T02:30:47.316Z,5.10
2022-10-13T02:33:15.743Z,5.40
2022-10-13T02:35:43.620Z,4.90
2022-10-13T02:38:12.661Z,4.90
2022-10-13T02:40:40.256Z,4.90
2022-10-13T02:43:07.888Z,4.80
2022-10-13T02:45:35.579Z,4.70
2022-10-13T02:48:03.482Z,4.40
2022-10-13T02:50:31.909Z,4.70
2022-10-13T02:52:59.797Z,4.90
2022-10-13T02:55:27.397Z,4.70
2022-10-13T02:57:57.258Z,4.70
2022-10-13T03:00:25.033Z,5.00
2022-10-13T03:02:52.680Z,4.70
2022-10-13T03:05:20.423Z,5.80
2022-10-13T03:07:48.065Z,5.10
2022-10-13T03:10:16.015Z,4.90
2022-10-13T03:12:43.594Z,5.70
2022-10-13T03:15:11.188Z,5.40
2022-10-13T03:17:38.842Z,6.10
2022-10-13T03:20:07.721Z,4.80
2022-10-13T03:22:35.302Z,4.70
2022-10-13T03:25:03.734Z,5.20
2022-10-13T03:27:31.504Z,6.00
2022-10-13T03:29:59.059Z,5.80
2022-10-13T03:32:26.622Z,6.50
2022-10-13T03:34:54.196Z,5.80
2022-10-13T03:37:21.771Z,5.70
2022-10-13T03:39:49.354Z,5.50
2022-10-13T03:42:18.339Z,6.20
2022-10-13T03:44:52.384Z,5.20
2022-10-13T03:47:22.963Z,5.60
2022-10-13T03:49:50.617Z,6.10
2022-10-13T03:52:18.637Z,4.90
2022-10-13T03:54:46.636Z,5.50
2022-10-13T03:57:14.278Z,5.90
2022-10-13T03:59:42.372Z,5.70
2022-10-13T04:02:10.009Z,5.90
2022-10-13T04:04:38.541Z,5.50
2022-10-13T04:07:08.017Z,5.80
2022-10-13T04:09:35.636Z,5.30
2022-10-13T04:12:04.302Z,5.90
2022-10-13T04:14:32.009Z,6.20
2022-10-13T04:17:03.113Z,6.40
2022-10-13T04:19:30.740Z,6.40
2022-10-13T04:22:04.276Z,5.90
2022-10-13T04:24:31.899Z,6.20
2022-10-13T04:26:59.555Z,6.70
2022-10-13T04:29:27.192Z,6.30
2022-10-13T04:31:55.472Z,6.40
2022-10-13T04:34:23.074Z,6.30
2022-10-13T04:36:51.771Z,6.90
2022-10-13T04:39:19.430Z,6.40
2022-10-13T04:41:50.673Z,6.60
2022-10-13T04:44:18.350Z,6.80
2022-10-13T04:46:46.069Z,6.90
2022-10-13T04:49:15.254Z,7.30
2022-10-13T04:51:43.441Z,7.80
2022-10-13T04:54:11.027Z,7.40
2022-10-13T04:56:38.715Z,7.40
2022-10-13T04:59:06.490Z,6.70
2022-10-13T05:01:35.923Z,7.00
2022-10-13T05:04:06.892Z,7.00
2022-10-13T05:06:59.011Z,6.80
2022-10-13T05:09:27.959Z,6.80
2022-10-13T05:11:55.613Z,5.90
2022-10-13T05:14:23.321Z,6.40
2022-10-13T05:16:50.993Z,7.60
2022-10-13T05:19:18.692Z,7.20
2022-10-13T05:21:46.321Z,6.90
2022-10-13T05:24:15.741Z,6.60
2022-10-13T05:26:44.308Z,6.70
2022-10-13T05:29:11.883Z,6.30
2022-10-13T05:31:40.410Z,6.50
2022-10-13T05:34:08.162Z,6.60
2022-10-13T05:36:35.754Z,6.70
2022-10-13T05:39:10.114Z,6.30
2022-10-13T05:41:39.183Z,5.70
2022-10-13T05:44:10.991Z,6.00
2022-10-13T05:46:43.720Z,5.80
2022-10-13T05:49:11.589Z,5.40
2022-10-13T05:51:46.070Z,5.40
2022-10-13T05:54:20.161Z,5.80
2022-10-13T05:56:58.922Z,5.50
2022-10-13T05:59:32.841Z,5.80
2022-10-13T06:02:02.463Z,4.80
2022-10-13T06:04:38.555Z,5.90
2022-10-13T06:07:06.599Z,5.00
2022-10-13T06:09:38.286Z,4.90
2022-10-13T06:12:08.347Z,5.70
2022-10-13T06:14:36.580Z,5.30
2022-10-13T06:17:07.738Z,5.40
2022-10-13T06:19:35.460Z,4.80
2022-10-13T06:22:09.387Z,5.40
2022-10-13T06:24:37.186Z,5.80
2022-10-13T06:27:06.949Z,5.10
2022-10-13T06:29:34.721Z,5.00
2022-10-13T06:32:02.382Z,4.90
2022-10-13T06:34:29.966Z,4.80
2022-10-13T06:36:58.193Z,5.60
2022-10-13T06:39:26.459Z,5.20
2022-10-13T06:41:55.275Z,5.30
2022-10-13T06:44:33.114Z,5.60
2022-10-13T06:47:05.253Z,5.40
2022-10-13T06:49:33.299Z,6.90
2022-10-13T06:52:01.395Z,8.30
2022-10-13T06:54:28.994Z,7.40
2022-10-13T06:56:56.759Z,8.30
2022-10-13T06:59:26.382Z,7.80
2022-10-13T07:01:54.458Z,7.20
2022-10-13T07:04:23.062Z,7.70
2022-10-13T07:06:51.683Z,6.40
2022-10-13T07:09:20.500Z,5.30
2022-10-13T07:11:49.543Z,5.50
2022-10-13T07:14:17.222Z,5.30
2022-10-13T07:16:44.807Z,5.60
2022-10-13T07:19:12.493Z,5.30
2022-10-13T07:21:41.163Z,5.00
2022-10-13T07:24:11.705Z,5.20
2022-10-13T07:26:39.293Z,5.40
2022-10-13T07:29:07.425Z,5.50
2022-10-13T07:31:35.051Z,6.00
2022-10-13T07:34:04.899Z,6.60
2022-10-13T07:36:33.833Z,6.70
2022-10-13T07:39:03.170Z,6.20
2022-10-13T07:41:30.732Z,6.00
2022-10-13T07:43:58.633Z,5.50
2022-10-13T07:46:26.336Z,6.20
2022-10-13T07:48:55.154Z,6.20
2022-10-13T07:51:23.197Z,6.50
2022-10-13T07:53:51.126Z,6.90
2022-10-13T07:56:18.698Z,5.70
2022-10-13T07:58:47.770Z,6.80
2022-10-13T08:01:17.311Z,7.10
2022-10-13T08:03:49.086Z,6.70
2022-10-13T08:06:19.243Z,7.30
2022-10-13T08:08:47.121Z,6.40
2022-10-13T08:11:17.892Z,6.00
2022-10-13T08:13:51.172Z,6.50
2022-10-13T08:16:22.559Z,5.70
2022-10-13T08:18:50.413Z,6.30
2022-10-13T08:21:45.702Z,6.30
2022-10-13T08:24:13.863Z,6.70
2022-10-13T08:26:43.350Z,6.50
2022-10-13T08:29:27.013Z,7.30
2022-10-13T08:31:55.614Z,6.50
2022-10-13T08:34:24.743Z,6.30
2022-10-13T08:36:56.278Z,6.40
2022-10-13T08:39:24.925Z,7.00
2022-10-13T08:41:55.213Z,6.90
2022-10-13T08:47:43.815Z,6.10
2022-10-13T08:50:21.832Z,6.60
2022-10-13T08:53:12.107Z,6.40
2022-10-13T08:55:54.411Z,6.90
2022-10-13T08:58:27.671Z,7.40
2022-10-13T09:01:15.411Z,6.80
2022-10-13T09:04:09.010Z,6.70
2022-10-13T09:06:42.995Z,6.80
2022-10-13T09:09:15.957Z,7.50
2022-10-13T09:11:49.398Z,7.20
2022-10-13T09:14:34.750Z,7.10
2022-10-13T09:17:26.425Z,7.70
2022-10-13T09:20:18.032Z,7.20
2022-10-13T09:25:49.379Z,7.30
2022-10-13T09:28:30.885Z,7.70
2022-10-13T09:31:14.126Z,6.70
2022-10-13T09:33:42.797Z,7.00
2022-10-13T09:36:15.973Z,7.00
2022-10-13T09:39:16.077Z,7.40
2022-10-13T09:41:45.638Z,8.40
2022-10-13T09:44:17.909Z,8.40
2022-10-13T09:46:56.646Z,8.20
2022-10-13T09:49:37.707Z,6.70
2022-10-13T09:52:14.032Z,6.50
2022-10-13T09:54:50.117Z,6.70
2022-10-13T09:57:33.055Z,7.10
2022-10-13T10:00:24.007Z,7.00
2022-10-13T10:03:35.385Z,6.80
2022-10-13T10:06:08.073Z,7.00
2022-10-13T10:09:04.790Z,5.60
2022-10-13T10:11:46.232Z,5.90
2022-10-13T10:14:31.363Z,5.50
2022-10-13T10:17:40.706Z,6.10
2022-10-13T10:20:41.074Z,5.10
2022-10-13T10:23:42.520Z,5.10
2022-10-13T10:26:33.342Z,5.50
2022-10-13T10:29:46.587Z,5.40
2022-10-13T10:32:34.564Z,6.80
2022-10-13T10:35:36.501Z,7.90
2022-10-13T10:38:25.317Z,6.90
2022-10-13T10:41:36.834Z,6.40
2022-10-13T10:44:12.748Z,6.70
2022-10-13T10:46:51.279Z,6.90
2022-10-13T10:49:31.980Z,5.90
2022-10-13T10:52:02.674Z,7.30
2022-10-13T10:54:58.819Z,5.90
2022-10-13T10:57:40.341Z,5.50
2022-10-13T11:00:42.655Z,8.80
2022-10-13T11:04:06.359Z,9.30
2022-10-13T11:06:37.861Z,8.80
2022-10-13T11:09:07.434Z,9.20
2022-10-13T11:11:42.989Z,8.80
2022-10-13T11:14:29.952Z,8.80
2022-10-13T11:17:17.560Z,9.50
2022-10-13T11:19:48.629Z,8.90
2022-10-13T11:22:30.879Z,9.90
2022-10-13T11:25:43.162Z,9.90
2022-10-13T11:28:23.238Z,9.10
2022-10-13T11:31:35.934Z,8.90
2022-10-13T11:34:04.134Z,8.70
2022-10-13T11:36:50.392Z,8.10
2022-10-13T11:39:59.410Z,8.80
2022-10-13T11:42:48.784Z,8.10
2022-10-13T11:45:47.115Z,7.20
2022-10-13T11:48:26.875Z,6.00
2022-10-13T11:51:33.546Z,6.10
2022-10-13T11:54:34.658Z,6.20
2022-10-13T11:57:04.617Z,5.80
2022-10-13T11:59:37.640Z,5.50
2022-10-13T12:02:18.941Z,5.00
2022-10-13T12:05:01.246Z,4.00
2022-10-13T12:07:39.953Z,3.70
2022-10-13T12:10:20.892Z,3.60
2022-10-13T12:12:50.373Z,3.60
2022-10-13T12:15:42.243Z,3.50
2022-10-13T12:18:27.767Z,3.60
2022-10-13T12:20:58.957Z,3.10
2022-10-13T12:23:31.558Z,3.30
2022-10-13T12:26:00.286Z,3.00
2022-10-13T12:28:55.947Z,3.60
2022-10-13T12:31:30.562Z,3.40
2022-10-13T12:34:01.996Z,3.10
2022-10-13T12:36:34.399Z,3.10
2022-10-13T12:39:07.782Z,3.40
2022-10-13T12:41:40.151Z,3.40
2022-10-13T12:44:23.939Z,3.60
2022-10-13T12:46:59.222Z,3.40
2022-10-13T12:49:33.678Z,3.50
2022-10-13T12:52:08.743Z,3.30
2022-10-13T12:54:48.657Z,3.30
2022-10-13T12:57:38.776Z,3.20
2022-10-13T13:00:26.731Z,3.50
2022-10-13T13:03:05.543Z,3.40
2022-10-13T13:05:50.763Z,3.60
2022-10-13T13:08:29.844Z,3.20
2022-10-13T13:10:59.977Z,3.30
2022-10-13T13:13:30.247Z,3.30
2022-10-13T13:16:21.265Z,3.10
2022-10-13T13:18:52.423Z,3.40
2022-10-13T13:21:20.717Z,3.60
2022-10-13T13:23:52.990Z,3.20
2022-10-13T13:26:23.833Z,3.20
2022-10-13T13:28:56.391Z,3.30
2022-10-13T13:31:26.275Z,2.90
2022-10-13T13:33:53.987Z,2.80
2022-10-13T13:36:25.166Z,3.30
2022-10-13T13:41:22.870Z,3.20
2022-10-13T13:43:50.593Z,3.00
2022-10-13T13:46:25.960Z,2.70
2022-10-13T13:48:53.881Z,3.20
2022-10-13T13:51:21.976Z,3.10
2022-10-13T13:53:49.752Z,3.20
2022-10-13T13:56:20.329Z,3.30
2022-10-13T13:58:48.421Z,3.10
2022-10-13T14:01:16.268Z,3.40
2022-10-13T14:03:44.113Z,3.10
2022-10-13T14:06:22.934Z,3.20
2022-10-13T14:08:50.725Z,3.40
2022-10-13T14:11:19.109Z,3.60
2022-10-13T14:13:46.902Z,3.90
2022-10-13T14:16:18.059Z,4.10
2022-10-13T14:18:45.801Z,3.50
2022-10-13T14:21:13.809Z,3.80
2022-10-13T14:23:46.845Z,3.50
2022-10-13T14:26:15.214Z,3.80
2022-10-13T14:28:44.943Z,3.30
2022-10-13T14:31:13.054Z,3.50
2022-10-13T14:33:41.887Z,3.40
2022-10-13T14:36:10.497Z,3.50
2022-10-13T14:38:38.339Z,3.00
2022-10-13T14:41:06.599Z,3.30
2022-10-13T14:43:34.247Z,3.20
2022-10-13T14:46:04.545Z,3.50
2022-10-13T14:48:34.432Z,3.80
2022-10-13T14:51:10.676Z,4.00
2022-10-13T14:53:42.408Z,3.20
2022-10-13T14:56:22.302Z,3.20
2022-10-13T14:59:02.700Z,3.10
2022-10-13T15:01:38.582Z,3.70
2022-10-13T15:04:06.255Z,3.00
2022-10-13T15:06:39.871Z,3.40
2022-10-13T15:11:42.411Z,3.90
2022-10-13T15:14:10.155Z,3.70
2022-10-13T15:16:38.135Z,3.40
2022-10-13T15:19:06.039Z,3.60
2022-10-13T15:21:34.038Z,3.60
2022-10-13T15:24:02.723Z,3.30
2022-10-13T15:26:30.520Z,3.60
2022-10-13T15:28:58.859Z,3.40
2022-10-13T15:31:26.713Z,3.10
2022-10-13T15:33:54.477Z,3.20
2022-10-13T15:36:23.952Z,3.60
2022-10-13T15:38:52.111Z,3.20
2022-10-13T15:41:21.411Z,3.20
2022-10-13T15:43:49.286Z,3.00
2022-10-13T15:46:21.631Z,3.10
2022-10-13T15:48:51.715Z,3.00
2022-10-13T15:51:22.523Z,3.20
2022-10-13T15:53:50.758Z,3.10
2022-10-13T15:56:18.497Z,3.20
2022-10-13T15:58:46.536Z,3.40
2022-10-13T16:01:14.811Z,3.10
2022-10-13T16:03:43.007Z,3.80
2022-10-13T16:06:13.382Z,4.90
2022-10-13T16:08:44.269Z,3.50
2022-10-13T16:11:15.831Z,3.90
2022-10-13T16:13:52.585Z,2.90
2022-10-13T16:16:22.287Z,3.60
2022-10-13T16:18:51.372Z,3.00
2022-10-13T16:21:23.526Z,2.90
2022-10-13T16:23:52.666Z,3.40
2022-10-13T16:26:21.398Z,3.40
2022-10-13T16:28:49.164Z,3.10
2022-10-13T16:31:17.460Z,2.60
2022-10-13T16:33:46.175Z,2.50
2022-10-13T16:36:19.076Z,3.60
2022-10-13T16:38:48.669Z,2.70
2022-10-13T16:41:18.586Z,2.80
2022-10-13T16:43:48.296Z,3.00
2022-10-13T16:46:19.878Z,3.00
2022-10-13T16:48:48.420Z,2.80
2022-10-13T16:51:23.569Z,3.30
2022-10-13T16:54:02.728Z,5.30
2022-10-13T16:56:33.015Z,4.40
2022-10-13T16:59:04.854Z,4.20
2022-10-13T17:01:35.122Z,4.10
2022-10-13T17:04:04.727Z,4.00
2022-10-13T17:06:33.168Z,3.90
2022-10-13T17:09:03.390Z,21.60
2022-10-13T17:11:34.066Z,17.50
2022-10-13T17:14:05.645Z,14.40
2022-10-13T17:16:33.707Z,5.90
2022-10-13T17:19:02.123Z,4.40
2022-10-13T17:21:39.090Z,5.10
2022-10-13T17:24:09.643Z,5.10
2022-10-13T17:26:37.356Z,13.70
2022-10-13T17:29:05.352Z,11.70
2022-10-13T17:31:33.338Z,9.90
2022-10-13T17:34:02.188Z,11.90
2022-10-13T17:36:32.320Z,9.40
2022-10-13T17:39:08.362Z,8.70
2022-10-13T17:41:41.343Z,13.70
2022-10-13T17:44:10.794Z,13.30
2022-10-13T17:46:39.745Z,14.00
2022-10-13T17:49:11.734Z,14.10
2022-10-13T17:51:41.441Z,11.20
2022-10-13T17:54:15.755Z,10.00
2022-10-13T17:56:48.910Z,7.50
2022-10-13T17:59:18.100Z,8.30
2022-10-13T18:01:46.163Z,6.80
2022-10-13T18:04:18.052Z,7.40
2022-10-13T18:06:47.663Z,8.90
2022-10-13T18:09:21.375Z,12.10
2022-10-13T18:11:51.647Z,11.30
2022-10-13T18:14:23.433Z,12.80
2022-10-13T18:19:21.497Z,13.40
2022-10-13T18:21:49.875Z,13.20
2022-10-13T18:24:17.711Z,13.30
2022-10-13T18:26:46.622Z,14.10
2022-10-13T18:29:14.728Z,13.80
2022-10-13T18:31:43.025Z,14.30
2022-10-13T18:34:14.783Z,14.30
2022-10-13T18:36:50.433Z,14.40
2022-10-13T18:39:28.623Z,13.70
2022-10-13T18:41:57.759Z,15.20
2022-10-13T18:44:35.066Z,13.70
2022-10-13T18:47:03.107Z,13.90
2022-10-13T18:49:31.302Z,19.40
2022-10-13T18:52:01.377Z,18.00
2022-10-13T18:54:30.710Z,15.00
2022-10-13T18:56:58.630Z,14.80
2022-10-13T18:59:26.515Z,15.70
2022-10-13T19:01:54.260Z,15.00
2022-10-13T19:04:22.786Z,13.70
2022-10-13T19:06:51.498Z,13.40
2022-10-13T19:09:21.534Z,20.10
2022-10-13T19:11:49.271Z,16.60
2022-10-13T19:14:17.312Z,16.20
2022-10-13T19:16:45.255Z,16.60
2022-10-13T19:19:13.494Z,14.70
2022-10-13T19:21:41.832Z,14.30
2022-10-13T19:24:10.535Z,13.70
2022-10-13T19:26:38.645Z,13.60
2022-10-13T19:29:12.769Z,12.90
2022-10-13T19:31:42.685Z,10.70
2022-10-13T19:34:13.126Z,11.20
2022-10-13T19:36:47.142Z,12.20
2022-10-13T19:39:21.776Z,15.20
2022-10-13T19:41:52.943Z,15.70
2022-10-13T19:44:22.568Z,15.10
2022-10-13T19:46:52.423Z,12.10
2022-10-13T19:49:23.408Z,12.50
2022-10-13T19:51:53.799Z,10.40
2022-10-13T19:54:22.754Z,10.20
2022-10-13T19:56:51.609Z,9.90
2022-10-13T19:59:20.189Z,11.00
2022-10-13T20:01:48.134Z,10.60
2022-10-13T20:04:18.582Z,11.10
2022-10-13T20:06:50.040Z,11.90
2022-10-13T20:11:49.280Z,12.00
2022-10-13T20:14:18.560Z,12.30
2022-10-13T20:16:47.001Z,12.30
2022-10-13T20:19:19.192Z,11.60
2022-10-13T20:21:48.199Z,12.20
2022-10-13T20:24:16.043Z,12.00
2022-10-13T20:26:43.960Z,14.40
2022-10-13T20:29:11.842Z,13.40
2022-10-13T20:31:39.801Z,14.70
2022-10-13T20:34:09.211Z,13.90
2022-10-13T20:36:38.975Z,14.50
2022-10-13T20:39:09.012Z,14.70
2022-10-13T20:41:37.422Z,15.00
2022-10-13T20:44:06.007Z,13.80
2022-10-13T20:46:34.806Z,14.30
2022-10-13T20:49:12.941Z,14.20
2022-10-13T20:51:45.568Z,14.30
2022-10-13T20:54:15.788Z,13.60
2022-10-13T20:56:44.204Z,15.40
2022-10-13T20:59:16.912Z,17.50
2022-10-13T21:01:44.773Z,17.90
2022-10-13T21:04:12.914Z,20.30
2022-10-13T21:06:42.456Z,16.80
2022-10-13T21:09:11.620Z,20.20
2022-10-13T21:11:41.383Z,20.20
2022-10-13T21:14:10.212Z,18.60
2022-10-13T21:19:12.411Z,16.40
2022-10-13T21:21:40.595Z,15.60
2022-10-13T21:24:10.381Z,13.20
2022-10-13T21:26:41.590Z,13.70
2022-10-13T21:29:15.367Z,12.60
2022-10-13T21:31:43.506Z,12.40
2022-10-13T21:34:12.797Z,12.10
2022-10-13T21:36:44.271Z,12.30
2022-10-13T21:39:14.281Z,12.40
2022-10-13T21:41:42.397Z,11.80
2022-10-13T21:44:14.870Z,12.50
2022-10-13T21:46:42.832Z,11.90
2022-10-13T21:49:10.714Z,11.90
2022-10-13T21:51:43.059Z,12.90
2022-10-13T21:54:14.081Z,13.00
2022-10-13T21:56:43.912Z,14.00
2022-10-13T21:59:13.633Z,15.60
2022-10-13T22:01:45.004Z,15.80
2022-10-13T22:06:45.350Z,13.70
2022-10-13T22:09:14.277Z,13.50
2022-10-13T22:11:45.089Z,13.50
2022-10-13T22:14:13.563Z,13.90
2022-10-13T22:16:47.320Z,13.20
2022-10-13T22:19:17.874Z,13.00
2022-10-13T22:21:48.980Z,12.60
2022-10-13T22:24:21.079Z,13.20
2022-10-13T22:26:50.055Z,13.00
2022-10-13T22:29:23.380Z,12.80
2022-10-13T22:31:57.893Z,12.00
2022-10-13T22:34:27.888Z,12.20
2022-10-13T22:36:56.133Z,11.30
2022-10-13T22:39:27.561Z,10.90
2022-10-13T22:41:56.252Z,10.60
2022-10-13T22:44:23.965Z,10.60
2022-10-13T22:46:51.771Z,10.90
2022-10-13T22:49:19.452Z,11.50
2022-10-13T22:51:47.339Z,11.20
2022-10-13T22:54:16.115Z,12.40
2022-10-13T22:56:43.946Z,11.00
2022-10-13T22:59:13.949Z,11.90
2022-10-13T23:01:42.217Z,11.00
2022-10-13T23:08:56.876Z,11.10
2022-10-13T23:11:25.551Z,11.00
2022-10-13T23:13:53.697Z,11.20
2022-10-13T23:16:25.783Z,12.30
2022-10-13T23:18:54.411Z,11.10
2022-10-13T23:21:28.805Z,9.80
2022-10-13T23:24:04.817Z,10.70
2022-10-13T23:26:34.810Z,11.30
2022-10-13T23:29:05.049Z,10.50
2022-10-13T23:31:33.843Z,10.80
2022-10-13T23:34:04.476Z,10.00
2022-10-13T23:36:33.227Z,11.10
2022-10-13T23:39:06.967Z,11.90
2022-10-13T23:41:38.341Z,9.60
2022-10-13T23:44:06.457Z,8.80
2022-10-13T23:46:34.694Z,8.80
2022-10-13T23:49:02.973Z,9.40
2022-10-13T23:51:34.311Z,9.50
2022-10-13T23:54:03.985Z,9.00
2022-10-13T23:56:32.432Z,10.00
2022-10-13T23:59:01.374Z,9.00
